EIKY/KIR METAR and TAF weather

Enter ICAO airport designator
Station Type Date Time Source
EIKY METAR 2021/05/15 18:30 UTC NOAA

EIKY 151830Z 24006KT 9999 BKN029 12/08 Q0994


Station Type Date Time Source
EIKY Decoded METAR 2021/05/15 18:30 UTC NOAA

Station name not available
May 15, 2021 - 02:30 PM EDT / 2021.05.15 1830 UTC
Wind: from the WSW (240 degrees) at 7 MPH (6 KT):0
Visibility: greater than 7 mile(s):0
Sky conditions: mostly cloudy
Temperature: 53 F (12 C)
Dew Point: 46 F (8 C)
Relative Humidity: 76%
Pressure (altimeter): 29.35 in. Hg (0994 hPa)
ob: EIKY 151830Z 24006KT 9999 BKN029 12/08 Q0994
cycle: 18

Station Type Date Time Source
EIKY TAF UTC NOAA

Error!

Example: see airport list